Time;durP1;ratioP1;P1;durP2;ratioP2;P2;SDS_P1;SDS_P2;PMS_P1;PMS_P2;Temp;Humidity;BMP_temperature;BMP_pressure;BME280_temperature;BME280_humidity;BME280_pressure;Samples;Min_cycle;Max_cycle;Signal;HPM_P1;HPM_P2
2022/11/06 00:01:23;;;;;;;176.63;28.63;;;5.70;99.90;;;;;;4970132;28;20239;-77
2022/11/06 00:03:53;;;;;;;170.80;24.43;;;5.50;99.90;;;;;;4978853;28;20246;-76
2022/11/06 00:09:06;;;;;;;134.60;23.93;;;5.50;99.90;;;;;;4969866;28;20272;-77
2022/11/06 00:11:32;;;;;;;88.23;16.20;;;5.40;99.90;;;;;;4969218;28;20272;-76
2022/11/06 00:14:00;;;;;;;78.03;15.17;;;5.40;99.90;;;;;;4987902;28;20212;-77
2022/11/06 00:16:25;;;;;;;64.83;25.53;;;5.40;99.90;;;;;;4988220;28;20180;-77
2022/11/06 00:18:52;;;;;;;79.27;30.90;;;5.20;99.90;;;;;;4988362;28;20711;-76
2022/11/06 00:21:26;;;;;;;82.60;27.60;;;5.10;99.90;;;;;;4989615;28;20565;-77
2022/11/06 00:23:53;;;;;;;64.07;17.27;;;5.10;99.90;;;;;;4987998;28;20652;-77
2022/11/06 00:26:22;;;;;;;123.00;51.00;;;5.00;99.90;;;;;;4989427;28;20731;-78
2022/11/06 00:28:48;;;;;;;209.43;23.53;;;4.90;99.90;;;;;;4988497;28;20216;-77
2022/11/06 00:31:18;;;;;;;142.93;19.47;;;4.80;99.90;;;;;;4990077;28;20187;-76
2022/11/06 00:33:45;;;;;;;118.70;20.17;;;4.90;99.90;;;;;;4977598;28;20610;-76
2022/11/06 00:36:13;;;;;;;225.63;27.40;;;4.90;99.90;;;;;;4989371;28;20562;-77
2022/11/06 00:38:39;;;;;;;130.50;29.67;;;4.90;99.90;;;;;;4988558;28;20724;-77
2022/11/06 00:41:09;;;;;;;172.77;29.53;;;5.00;99.90;;;;;;4991881;28;20250;-77
2022/11/06 00:43:36;;;;;;;135.53;41.53;;;5.20;99.90;;;;;;4977022;28;20239;-77
2022/11/06 00:46:06;;;;;;;174.83;43.63;;;5.30;99.90;;;;;;4971247;28;20593;-77
2022/11/06 00:48:32;;;;;;;141.67;58.20;;;5.30;99.90;;;;;;4969296;28;20619;-77
2022/11/06 00:51:08;;;;;;;89.53;17.73;;;5.30;99.90;;;;;;4970267;28;20188;-78
2022/11/06 00:53:34;;;;;;;91.97;18.73;;;5.30;99.90;;;;;;4969558;28;20195;-76
2022/11/06 00:56:10;;;;;;;79.57;30.20;;;5.30;99.90;;;;;;4968352;28;20189;-76
2022/11/06 00:58:36;;;;;;;100.33;16.50;;;5.30;99.90;;;;;;4968305;28;20223;-76
2022/11/06 01:01:11;;;;;;;66.10;14.67;;;5.20;99.90;;;;;;4969381;28;20312;-77
2022/11/06 01:03:39;;;;;;;102.53;17.10;;;5.20;99.90;;;;;;4984611;28;20184;-77
2022/11/06 01:06:14;;;;;;;48.13;20.03;;;5.20;99.90;;;;;;4987556;28;20198;-77
2022/11/06 01:08:40;;;;;;;50.67;19.60;;;5.20;99.90;;;;;;4988342;28;20865;-78
2022/11/06 01:11:15;;;;;;;59.00;23.17;;;5.30;99.90;;;;;;4989150;28;20192;-77
2022/11/06 01:13:41;;;;;;;66.33;16.27;;;5.30;99.90;;;;;;4989103;28;20184;-76
2022/11/06 01:16:09;;;;;;;85.63;24.20;;;5.30;99.90;;;;;;4987515;28;20193;-76
2022/11/06 01:18:36;;;;;;;74.63;25.23;;;5.20;99.90;;;;;;4989505;28;20233;-77
2022/11/06 01:21:14;;;;;;;174.30;26.00;;;5.20;99.90;;;;;;4998528;28;20207;-75
2022/11/06 01:23:40;;;;;;;88.80;23.00;;;5.20;99.90;;;;;;4977344;28;20196;-75
2022/11/06 01:26:08;;;;;;;62.13;24.33;;;5.20;99.90;;;;;;4969319;28;20315;-76
2022/11/06 01:28:34;;;;;;;74.10;25.17;;;5.10;99.90;;;;;;4967768;28;20201;-77
2022/11/06 01:31:14;;;;;;;27.27;23.07;;;5.10;99.90;;;;;;4979558;28;20192;-77
2022/11/06 01:33:41;;;;;;;43.33;19.60;;;5.10;99.90;;;;;;4982876;28;20184;-76
2022/11/06 01:36:08;;;;;;;82.80;18.13;;;5.00;99.90;;;;;;4987621;28;20270;-75
2022/11/06 01:38:34;;;;;;;73.77;16.07;;;5.10;99.90;;;;;;4986825;28;20303;-75
2022/11/06 01:41:00;;;;;;;65.27;16.20;;;5.00;99.90;;;;;;4986785;28;20207;-77
2022/11/06 01:43:46;;;;;;;121.60;21.70;;;4.90;99.90;;;;;;4976367;28;20618;-77
2022/11/06 01:46:12;;;;;;;39.63;18.03;;;4.90;99.90;;;;;;4968384;28;20261;-77
2022/11/06 01:48:41;;;;;;;44.87;13.50;;;4.90;99.90;;;;;;4968960;28;20207;-75
2022/11/06 01:51:08;;;;;;;61.60;16.93;;;4.90;99.90;;;;;;4972084;28;20196;-77
2022/11/06 01:53:36;;;;;;;69.97;16.03;;;4.80;99.90;;;;;;4980548;28;20192;-77
2022/11/06 01:56:05;;;;;;;68.07;20.30;;;4.80;99.90;;;;;;4972893;28;20192;-75
2022/11/06 01:58:33;;;;;;;38.37;20.70;;;4.90;99.90;;;;;;4970330;28;20217;-75
2022/11/06 02:00:59;;;;;;;60.97;22.13;;;4.90;99.90;;;;;;4971920;28;20746;-75
2022/11/06 02:03:25;;;;;;;40.70;36.50;;;5.00;99.90;;;;;;4983232;28;20184;-75
2022/11/06 02:05:52;;;;;;;51.80;45.70;;;5.10;99.90;;;;;;4990071;28;20184;-75
2022/11/06 02:08:20;;;;;;;42.47;31.03;;;5.10;99.90;;;;;;4989723;28;20677;-76
2022/11/06 02:10:47;;;;;;;52.07;28.33;;;5.20;99.90;;;;;;4991248;28;20219;-75
2022/11/06 02:13:36;;;;;;;81.10;28.73;;;5.20;99.90;;;;;;4990479;28;20649;-75
2022/11/06 02:16:33;;;;;;;46.20;22.37;;;5.10;99.90;;;;;;4991202;28;20184;-76
2022/11/06 02:19:36;;;;;;;49.30;19.60;;;5.10;99.90;;;;;;4989714;28;20191;-75
2022/11/06 02:22:26;;;;;;;86.27;28.07;;;5.10;99.90;;;;;;4989643;28;20219;-75
2022/11/06 02:25:07;;;;;;;109.77;19.50;;;5.00;99.90;;;;;;4970385;28;20212;-75
2022/11/06 02:27:34;;;;;;;134.70;19.57;;;4.90;99.90;;;;;;4970136;28;20204;-76
2022/11/06 02:30:10;;;;;;;118.43;35.57;;;4.80;99.90;;;;;;4970484;28;20174;-75
2022/11/06 02:32:53;;;;;;;105.60;32.60;;;4.80;99.90;;;;;;4970548;28;20176;-75
2022/11/06 02:35:42;;;;;;;164.77;20.77;;;4.80;99.90;;;;;;4970258;28;20720;-75
2022/11/06 02:38:19;;;;;;;65.63;19.40;;;4.70;99.90;;;;;;4969809;28;20696;-75
2022/11/06 02:40:55;;;;;;;64.43;16.83;;;4.70;99.90;;;;;;4970283;28;20269;-75
2022/11/06 02:43:26;;;;;;;77.87;19.57;;;4.80;99.90;;;;;;4973328;28;20184;-76
2022/11/06 02:46:04;;;;;;;101.13;19.33;;;4.70;99.90;;;;;;4973499;28;20199;-75
2022/11/06 02:48:36;;;;;;;62.27;11.83;;;4.70;99.90;;;;;;4977157;28;20258;-75
2022/11/06 02:51:04;;;;;;;135.60;16.90;;;4.60;99.90;;;;;;4970535;28;20602;-75
2022/11/06 02:53:31;;;;;;;104.87;14.10;;;4.50;99.90;;;;;;4971247;28;20199;-75
2022/11/06 02:56:05;;;;;;;159.63;16.53;;;4.40;99.90;;;;;;4970055;28;20203;-75
2022/11/06 02:58:42;;;;;;;111.53;25.20;;;4.40;99.90;;;;;;4970771;28;20247;-75
2022/11/06 03:01:25;;;;;;;207.33;16.90;;;4.40;99.90;;;;;;4988347;28;20683;-76
2022/11/06 03:03:55;;;;;;;153.97;23.17;;;4.30;99.90;;;;;;4990891;28;20563;-76
2022/11/06 03:07:00;;;;;;;68.67;19.93;;;4.30;99.90;;;;;;4985189;28;20184;-75
2022/11/06 03:09:28;;;;;;;67.53;11.60;;;4.30;99.90;;;;;;4988665;28;20184;-76
2022/11/06 03:12:13;;;;;;;113.40;21.50;;;4.30;99.90;;;;;;4970683;28;20189;-76
2022/11/06 03:14:48;;;;;;;169.87;21.80;;;4.30;99.90;;;;;;4971831;28;20180;-76
2022/11/06 03:17:23;;;;;;;72.13;29.03;;;4.20;99.90;;;;;;4969170;28;20220;-76
2022/11/06 03:20:08;;;;;;;140.17;21.40;;;4.20;99.90;;;;;;4970729;28;20621;-76
2022/11/06 03:23:06;;;;;;;101.33;12.97;;;4.20;99.90;;;;;;4969245;28;20201;-76
2022/11/06 03:25:51;;;;;;;94.30;21.53;;;4.20;99.90;;;;;;4969435;28;20282;-75
2022/11/06 03:28:37;;;;;;;94.47;14.77;;;4.20;99.90;;;;;;4970165;28;20213;-75
2022/11/06 03:31:09;;;;;;;52.50;21.77;;;4.20;99.90;;;;;;4987733;28;20294;-75
2022/11/06 03:33:55;;;;;;;83.90;18.03;;;4.20;99.90;;;;;;4988619;28;20176;-75
2022/11/06 03:36:29;;;;;;;77.67;29.03;;;4.30;99.90;;;;;;4988528;28;20228;-76
2022/11/06 03:39:01;;;;;;;73.80;22.93;;;4.30;99.90;;;;;;4988186;28;20239;-76
2022/11/06 03:41:48;;;;;;;120.13;23.93;;;4.30;99.90;;;;;;4971329;28;20218;-76
2022/11/06 03:44:18;;;;;;;123.63;15.57;;;4.20;99.90;;;;;;4969228;28;20228;-77
2022/11/06 03:46:52;;;;;;;101.47;14.70;;;4.20;99.90;;;;;;4969220;28;20252;-77
2022/11/06 03:49:25;;;;;;;84.03;12.43;;;4.20;99.90;;;;;;4969977;28;20192;-76
2022/11/06 03:52:04;;;;;;;66.63;11.70;;;4.20;99.90;;;;;;4988092;28;20257;-77
2022/11/06 03:54:41;;;;;;;63.63;11.63;;;4.20;99.90;;;;;;4989749;28;20625;-76
2022/11/06 03:57:29;;;;;;;85.73;12.93;;;4.10;99.90;;;;;;4987644;28;20318;-76
2022/11/06 04:00:00;;;;;;;78.63;11.10;;;4.10;99.90;;;;;;4987878;28;20229;-76
2022/11/06 04:02:29;;;;;;;145.10;15.10;;;4.00;99.90;;;;;;4989397;28;20624;-76
2022/11/06 04:05:01;;;;;;;148.80;15.97;;;4.00;99.90;;;;;;4989322;28;20191;-76
2022/11/06 04:13:56;;;;;;;99.70;12.53;;;3.90;99.90;;;;;;4989719;28;20214;-76
2022/11/06 04:16:03;;;;;;;60.70;12.23;;;4.10;99.90;;;;;;4987474;28;20200;-76
2022/11/06 04:18:29;;;;;;;40.87;12.40;;;4.20;99.90;;;;;;4989305;28;20203;-75
2022/11/06 04:21:21;;;;;;;46.00;11.80;;;4.20;99.90;;;;;;4988477;28;20671;-77
2022/11/06 04:26:34;;;;;;;76.30;12.97;;;4.20;99.90;;;;;;4987919;28;20242;-77
2022/11/06 04:26:50;;;;;;;99.50;15.30;;;4.20;99.90;;;;;;4988739;28;20241;-76
2022/11/06 04:29:24;;;;;;;82.47;14.33;;;4.10;99.90;;;;;;4989045;28;20197;-76
2022/11/06 04:31:59;;;;;;;61.63;10.57;;;3.90;99.90;;;;;;4969067;28;20211;-76
2022/11/06 04:34:35;;;;;;;107.47;15.40;;;4.00;99.90;;;;;;4969567;28;20184;-75
2022/11/06 04:37:10;;;;;;;121.77;17.00;;;3.90;99.90;;;;;;4967887;28;20197;-76
2022/11/06 04:39:45;;;;;;;118.40;43.97;;;3.80;99.90;;;;;;4968473;28;20223;-75
2022/11/06 04:42:16;;;;;;;82.67;33.83;;;3.70;99.90;;;;;;4967990;28;20645;-76
2022/11/06 04:44:49;;;;;;;158.40;32.40;;;3.60;99.90;;;;;;4984975;28;20820;-75
2022/11/06 04:47:20;;;;;;;72.00;22.50;;;3.60;99.90;;;;;;4987203;28;20291;-76
2022/11/06 04:49:49;;;;;;;141.97;32.20;;;3.50;99.90;;;;;;4987324;28;20187;-76
2022/11/06 04:52:20;;;;;;;236.53;24.77;;;3.40;99.90;;;;;;4988668;28;20302;-76
2022/11/06 04:54:47;;;;;;;155.60;45.50;;;3.30;99.90;;;;;;4988870;28;20214;-76
2022/11/06 04:57:13;;;;;;;82.90;41.93;;;3.30;99.90;;;;;;4987931;28;20212;-76
2022/11/06 04:59:39;;;;;;;120.37;13.20;;;3.30;99.90;;;;;;4987238;28;20193;-76
2022/11/06 05:02:05;;;;;;;81.30;15.10;;;3.10;99.90;;;;;;4971462;28;20203;-75
2022/11/06 05:04:31;;;;;;;43.10;16.13;;;3.00;99.90;;;;;;4987440;28;20191;-76
2022/11/06 05:06:56;;;;;;;82.33;15.77;;;3.00;99.90;;;;;;4986980;28;20355;-76
2022/11/06 05:09:23;;;;;;;85.60;15.57;;;3.10;99.90;;;;;;4988403;28;20297;-75
2022/11/06 05:11:48;;;;;;;72.53;16.37;;;3.30;99.90;;;;;;4969590;28;20880;-76
2022/11/06 05:14:14;;;;;;;27.83;13.70;;;3.40;99.90;;;;;;4968758;28;20198;-77
2022/11/06 05:16:40;;;;;;;59.63;30.17;;;3.50;99.90;;;;;;4968818;28;20184;-75
2022/11/06 05:19:06;;;;;;;64.13;14.13;;;3.40;99.90;;;;;;4968661;28;20187;-75
2022/11/06 05:24:16;;;;;;;124.73;43.53;;;3.40;99.90;;;;;;4990215;28;20274;-76
2022/11/06 05:26:42;;;;;;;58.47;11.67;;;3.50;99.90;;;;;;4991523;28;20200;-75
2022/11/06 05:29:09;;;;;;;59.17;14.97;;;3.50;99.90;;;;;;4992069;28;20274;-76
2022/11/06 05:31:35;;;;;;;33.57;12.23;;;3.70;99.90;;;;;;4976644;28;20200;-75
2022/11/06 05:34:01;;;;;;;60.57;46.90;;;3.70;99.90;;;;;;4973798;28;20186;-76
2022/11/06 05:36:26;;;;;;;28.93;16.33;;;3.70;99.90;;;;;;4972285;28;20673;-75
2022/11/06 05:38:52;;;;;;;96.60;13.67;;;3.70;99.90;;;;;;4971784;28;20211;-76
2022/11/06 05:41:18;;;;;;;90.77;14.37;;;3.70;99.90;;;;;;4982853;28;20239;-76
2022/11/06 05:43:44;;;;;;;65.20;12.13;;;3.70;99.90;;;;;;4992042;28;20694;-77
2022/11/06 05:46:09;;;;;;;51.93;12.93;;;3.70;99.90;;;;;;4991499;28;20192;-76
2022/11/06 05:48:35;;;;;;;110.83;14.40;;;3.70;99.90;;;;;;4989917;28;20206;-76
2022/11/06 05:51:05;;;;;;;60.90;12.27;;;3.60;99.90;;;;;;4989980;28;20649;-76
2022/11/06 05:53:33;;;;;;;28.73;10.77;;;3.70;99.90;;;;;;4990278;28;20185;-76
2022/11/06 05:55:59;;;;;;;43.23;11.40;;;3.80;99.90;;;;;;4989961;28;20224;-76
2022/11/06 05:58:26;;;;;;;21.87;10.70;;;3.80;99.90;;;;;;4987967;28;20220;-76
2022/11/06 06:00:53;;;;;;;46.03;11.00;;;3.80;99.90;;;;;;4976764;28;20196;-76
2022/11/06 06:03:20;;;;;;;32.53;11.10;;;3.80;99.90;;;;;;4971430;28;20301;-76
2022/11/06 06:05:46;;;;;;;34.77;10.27;;;3.80;99.90;;;;;;4970107;28;20234;-76
2022/11/06 06:08:12;;;;;;;66.50;13.10;;;3.70;99.90;;;;;;4970025;28;20199;-76
2022/11/06 06:10:42;;;;;;;53.87;13.70;;;3.70;99.90;;;;;;4975665;28;20251;-76
2022/11/06 06:13:08;;;;;;;56.47;12.60;;;3.70;99.90;;;;;;4988448;28;20178;-76
2022/11/06 06:15:36;;;;;;;51.60;12.10;;;3.60;99.90;;;;;;4990855;28;20600;-76
2022/11/06 06:18:02;;;;;;;49.73;12.53;;;3.60;99.90;;;;;;4988981;28;20206;-76
2022/11/06 06:20:27;;;;;;;39.13;11.23;;;3.50;99.90;;;;;;4985940;28;20191;-76
2022/11/06 06:22:54;;;;;;;31.27;13.97;;;3.50;99.90;;;;;;4969937;28;20187;-76
2022/11/06 06:25:20;;;;;;;35.33;14.10;;;3.60;99.90;;;;;;4971084;28;20319;-76
2022/11/06 06:27:46;;;;;;;55.17;13.30;;;3.60;99.90;;;;;;4969372;28;20329;-76
2022/11/06 06:30:12;;;;;;;44.07;11.80;;;3.60;99.90;;;;;;4971224;28;20237;-76
2022/11/06 06:32:38;;;;;;;78.10;16.77;;;3.60;99.90;;;;;;4990450;28;20199;-73
2022/11/06 06:35:04;;;;;;;61.67;13.57;;;3.40;99.90;;;;;;4989302;28;20184;-75
2022/11/06 06:37:30;;;;;;;116.30;15.50;;;3.40;99.90;;;;;;4975996;28;20276;-75
2022/11/06 06:39:56;;;;;;;93.70;16.30;;;3.40;99.90;;;;;;4970154;28;20712;-75
2022/11/06 06:42:22;;;;;;;71.87;18.83;;;3.40;99.90;;;;;;4969871;28;20195;-76
2022/11/06 06:44:47;;;;;;;59.40;11.90;;;3.50;99.90;;;;;;4969823;28;20188;-75
2022/11/06 06:47:17;;;;;;;43.40;12.70;;;3.50;99.90;;;;;;4969600;28;20200;-75
2022/11/06 06:49:43;;;;;;;60.97;13.43;;;3.40;99.90;;;;;;4969260;28;20181;-76
2022/11/06 06:52:10;;;;;;;70.50;12.00;;;3.30;99.90;;;;;;4986036;28;20613;-75
2022/11/06 06:54:35;;;;;;;63.83;10.33;;;3.20;99.90;;;;;;4989002;28;20182;-75
2022/11/06 06:57:01;;;;;;;66.40;10.43;;;3.00;99.90;;;;;;4988361;28;20223;-75
2022/11/06 06:59:28;;;;;;;66.30;11.83;;;2.90;99.90;;;;;;4988919;28;20194;-75
2022/11/06 07:01:54;;;;;;;81.90;11.50;;;3.00;99.90;;;;;;4974488;28;20192;-75
2022/11/06 07:04:20;;;;;;;38.20;13.33;;;3.00;99.90;;;;;;4988268;28;20283;-76
2022/11/06 07:06:45;;;;;;;85.17;21.20;;;3.10;99.90;;;;;;4988440;28;20215;-73
2022/11/06 07:09:11;;;;;;;38.13;13.90;;;3.10;99.90;;;;;;4988805;28;20654;-74
2022/11/06 07:11:37;;;;;;;36.40;22.97;;;3.20;99.90;;;;;;4977710;28;20217;-74
2022/11/06 07:14:03;;;;;;;45.77;11.77;;;3.20;99.90;;;;;;4985045;28;20674;-73
2022/11/06 07:16:29;;;;;;;53.60;11.17;;;3.20;99.90;;;;;;4989939;28;20663;-74
2022/11/06 07:18:55;;;;;;;68.60;32.60;;;3.20;99.90;;;;;;4988076;28;20200;-76
2022/11/06 07:21:21;;;;;;;157.60;20.10;;;3.10;99.90;;;;;;4985860;28;20187;-74
2022/11/06 07:23:46;;;;;;;32.47;21.40;;;2.90;99.90;;;;;;4989430;28;20855;-74
2022/11/06 07:26:12;;;;;;;55.10;47.73;;;2.80;99.90;;;;;;4988507;28;20279;-75
2022/11/06 07:28:38;;;;;;;96.43;44.40;;;2.80;99.90;;;;;;4989036;28;20215;-77
2022/11/06 07:31:06;;;;;;;99.60;26.40;;;2.90;99.90;;;;;;4976978;28;20307;-76
2022/11/06 07:33:33;;;;;;;75.17;29.50;;;3.00;99.90;;;;;;4986788;28;20187;-74
2022/11/06 07:36:08;;;;;;;71.73;28.27;;;3.10;99.90;;;;;;4969592;28;20278;-75
2022/11/06 07:38:35;;;;;;;33.93;30.33;;;3.20;99.90;;;;;;4968478;28;20705;-74
2022/11/06 07:41:07;;;;;;;68.70;11.90;;;3.30;99.90;;;;;;4969803;28;20203;-74
2022/11/06 07:43:33;;;;;;;74.20;18.13;;;3.40;99.90;;;;;;4977778;28;20663;-75
2022/11/06 07:46:06;;;;;;;72.53;30.10;;;3.50;99.90;;;;;;4973173;28;20198;-75
2022/11/06 07:48:33;;;;;;;23.37;12.10;;;3.80;99.90;;;;;;4968677;28;20219;-74
2022/11/06 07:51:02;;;;;;;21.17;16.27;;;3.80;99.90;;;;;;4969008;28;20214;-73
2022/11/06 07:53:28;;;;;;;49.97;35.70;;;3.70;99.90;;;;;;4988892;28;20188;-74
2022/11/06 07:55:55;;;;;;;36.00;13.30;;;3.50;99.90;;;;;;4988175;28;20664;-73
2022/11/06 07:58:23;;;;;;;32.53;17.50;;;3.60;99.90;;;;;;5028909;28;20217;-73
2022/11/06 08:00:50;;;;;;;29.30;26.13;;;3.70;99.90;;;;;;5006355;28;20340;-74
2022/11/06 08:03:17;;;;;;;30.60;28.03;;;3.70;99.90;;;;;;4988433;28;20220;-74
2022/11/06 08:05:44;;;;;;;24.13;20.90;;;3.70;99.90;;;;;;4989214;28;20205;-75
2022/11/06 08:08:10;;;;;;;30.20;26.93;;;3.90;99.90;;;;;;5051078;28;20235;-74
2022/11/06 08:10:39;;;;;;;48.47;28.83;;;4.20;99.90;;;;;;4993875;28;20198;-74
2022/11/06 08:13:06;;;;;;;28.03;21.60;;;4.40;99.90;;;;;;4969503;28;20189;-75
2022/11/06 08:15:32;;;;;;;20.33;13.83;;;4.80;99.90;;;;;;4969686;28;20254;-75
2022/11/06 08:17:59;;;;;;;18.93;17.27;;;5.10;99.90;;;;;;4968564;28;20235;-75
2022/11/06 08:20:25;;;;;;;39.47;32.63;;;5.30;99.90;;;;;;4969756;28;20708;-75
2022/11/06 08:22:50;;;;;;;27.90;21.13;;;5.30;99.90;;;;;;4983891;28;20248;-76
2022/11/06 08:25:16;;;;;;;13.40;12.00;;;5.50;99.90;;;;;;4988782;28;20619;-76
2022/11/06 08:27:42;;;;;;;16.03;14.47;;;5.80;99.90;;;;;;4982696;28;20211;-74
2022/11/06 08:30:09;;;;;;;17.27;15.47;;;6.10;99.90;;;;;;4980665;28;20250;-74
2022/11/06 08:32:34;;;;;;;15.90;14.30;;;6.50;99.90;;;;;;4967870;28;20177;-75
2022/11/06 08:35:00;;;;;;;69.60;64.70;;;6.70;99.90;;;;;;4976324;28;20176;-74
2022/11/06 08:37:26;;;;;;;11.90;10.67;;;6.80;99.90;;;;;;4970531;28;20255;-75
2022/11/06 08:39:51;;;;;;;22.10;16.63;;;6.90;99.90;;;;;;4967886;28;20181;-75
2022/11/06 08:42:17;;;;;;;16.10;14.47;;;6.90;99.90;;;;;;4968315;28;20693;-75
2022/11/06 08:44:43;;;;;;;13.40;11.57;;;7.00;99.90;;;;;;4969810;28;20181;-75
2022/11/06 08:47:09;;;;;;;16.17;13.17;;;7.10;99.90;;;;;;4977460;28;20267;-75
2022/11/06 08:49:34;;;;;;;14.50;13.30;;;7.70;99.90;;;;;;4984903;28;20199;-75
2022/11/06 08:52:00;;;;;;;17.63;16.33;;;8.30;99.90;;;;;;4988557;28;20259;-75
2022/11/06 08:54:26;;;;;;;19.97;18.57;;;9.20;99.90;;;;;;4987521;28;20206;-75
2022/11/06 08:56:52;;;;;;;28.23;26.37;;;9.90;99.90;;;;;;4980705;28;20708;-76
2022/11/06 08:59:17;;;;;;;29.20;27.47;;;10.40;99.90;;;;;;4968271;28;20645;-77
2022/11/06 09:01:43;;;;;;;19.93;18.43;;;11.00;99.90;;;;;;4969237;28;20189;-75
2022/11/06 09:04:09;;;;;;;21.03;19.70;;;11.50;99.90;;;;;;5058056;28;20189;-74
2022/11/06 09:06:35;;;;;;;13.87;12.87;;;12.00;99.90;;;;;;5060598;28;20177;-76
2022/11/06 09:09:00;;;;;;;17.80;16.50;;;12.50;99.90;;;;;;4966906;28;20650;-76
2022/11/06 09:11:26;;;;;;;16.10;15.00;;;12.70;99.90;;;;;;4966212;28;20209;-76
2022/11/06 09:13:52;;;;;;;14.83;13.63;;;13.20;99.90;;;;;;4969085;28;20187;-76
2022/11/06 09:16:18;;;;;;;11.67;10.77;;;13.50;99.90;;;;;;4969964;28;20292;-76
2022/11/06 09:18:43;;;;;;;9.57;8.77;;;13.60;99.90;;;;;;4987567;28;20257;-76
2022/11/06 09:21:09;;;;;;;9.67;8.83;;;13.90;99.90;;;;;;4988730;28;20725;-76
2022/11/06 09:23:35;;;;;;;12.53;11.53;;;13.90;99.90;;;;;;4987312;28;20280;-76
2022/11/06 09:26:01;;;;;;;14.47;13.17;;;14.10;99.90;;;;;;4987317;28;20187;-76
2022/11/06 09:28:26;;;;;;;14.30;13.13;;;14.10;99.90;;;;;;4969058;28;20231;-77
2022/11/06 09:30:54;;;;;;;18.03;16.53;;;14.10;99.90;;;;;;4969229;28;20260;-76
2022/11/06 09:33:19;;;;;;;12.10;11.03;;;14.50;99.90;;;;;;4967747;28;20262;-76
2022/11/06 09:35:45;;;;;;;11.87;10.87;;;14.70;99.90;;;;;;4969069;28;20185;-76
2022/11/06 09:38:14;;;;;;;12.40;11.40;;;15.70;99.90;;;;;;4983874;28;20721;-74
2022/11/06 09:40:55;;;;;;;9.53;8.70;;;15.70;99.90;;;;;;4988429;28;20289;-76
2022/11/06 09:43:37;;;;;;;17.03;15.90;;;15.80;99.90;;;;;;4987133;28;20181;-76
2022/11/06 09:46:13;;;;;;;19.10;17.83;;;15.80;99.90;;;;;;4987159;28;20223;-74
2022/11/06 09:48:42;;;;;;;21.60;20.07;;;15.80;99.90;;;;;;4968431;28;20209;-74
2022/11/06 09:51:23;;;;;;;17.83;16.57;;;16.10;99.90;;;;;;4968868;28;20266;-75
2022/11/06 09:53:59;;;;;;;18.83;17.23;;;16.00;99.90;;;;;;4969433;28;20192;-74
2022/11/06 09:56:31;;;;;;;15.70;14.77;;;15.50;99.90;;;;;;4968242;28;20185;-74
2022/11/06 09:58:58;;;;;;;14.67;13.67;;;15.10;99.90;;;;;;4967165;28;20240;-75
2022/11/06 10:01:34;;;;;;;14.57;13.57;;;15.50;99.90;;;;;;4968704;28;20221;-75
2022/11/06 10:04:02;;;;;;;13.33;12.53;;;15.80;99.90;;;;;;4967474;28;20250;-74
2022/11/06 10:06:29;;;;;;;36.43;34.40;;;16.40;99.90;;;;;;4971287;28;20189;-74
2022/11/06 10:09:04;;;;;;;40.50;38.37;;;17.00;99.90;;;;;;4974194;28;20196;-75
2022/11/06 10:11:56;;;;;;;36.00;33.90;;;16.80;99.90;;;;;;4991741;28;20219;-76
2022/11/06 10:14:39;;;;;;;28.53;27.00;;;17.70;99.90;;;;;;4992663;28;20176;-75
2022/11/06 10:17:22;;;;;;;33.23;31.47;;;17.70;99.90;;;;;;4983293;28;20201;-75
2022/11/06 10:20:20;;;;;;;26.37;24.87;;;17.40;99.90;;;;;;4970801;28;20271;-76
2022/11/06 10:23:17;;;;;;;13.93;13.13;;;18.20;99.90;;;;;;4970447;28;20188;-75
2022/11/06 10:25:51;;;;;;;12.40;11.57;;;18.20;99.90;;;;;;4971749;28;20186;-75
2022/11/06 10:28:38;;;;;;;9.80;9.23;;;17.90;99.90;;;;;;4986051;28;20197;-75
2022/11/06 10:31:53;;;;;;;8.07;7.57;;;17.60;99.90;;;;;;4989786;28;20208;-75
2022/11/06 10:34:45;;;;;;;5.93;5.43;;;18.00;99.90;;;;;;4952844;28;20189;-75
2022/11/06 10:37:19;;;;;;;5.77;5.37;;;17.60;99.90;;;;;;4981860;28;20189;-74
2022/11/06 10:39:45;;;;;;;12.90;12.20;;;16.90;99.90;;;;;;4971734;28;20719;-74
2022/11/06 10:42:15;;;;;;;23.80;22.40;;;16.30;99.90;;;;;;4970385;28;20226;-75
2022/11/06 10:44:53;;;;;;;21.60;20.50;;;15.80;99.90;;;;;;4970401;28;20213;-75
2022/11/06 10:47:22;;;;;;;62.53;59.40;;;15.30;99.90;;;;;;4978628;28;20254;-75
2022/11/06 10:49:54;;;;;;;59.97;57.03;;;15.20;99.90;;;;;;4989574;28;20271;-75
2022/11/06 10:52:26;;;;;;;63.70;60.40;;;15.70;99.90;;;;;;4990638;28;20223;-77
2022/11/06 10:55:24;;;;;;;65.17;61.90;;;15.50;99.90;;;;;;4990762;28;20188;-75
2022/11/06 10:58:06;;;;;;;66.03;62.73;;;15.50;99.90;;;;;;4989958;28;20581;-75
2022/11/06 11:00:33;;;;;;;59.23;56.30;;;15.20;99.90;;;;;;4989623;28;20215;-75
2022/11/06 11:03:01;;;;;;;42.03;39.87;;;14.80;99.90;;;;;;4989388;28;20187;-75
2022/11/06 11:05:37;;;;;;;5.47;5.17;;;14.00;99.90;;;;;;4989653;28;20215;-75
2022/11/06 11:08:04;;;;;;;5.03;4.77;;;13.00;99.90;;;;;;4976420;28;20201;-76
2022/11/06 11:10:32;;;;;;;6.40;6.00;;;12.70;99.90;;;;;;4969877;28;20181;-75
2022/11/06 11:13:01;;;;;;;5.83;5.03;;;12.60;99.90;;;;;;4969863;28;20326;-74
2022/11/06 11:15:30;;;;;;;5.57;5.27;;;12.60;99.90;;;;;;4969965;28;20185;-74
2022/11/06 11:18:11;;;;;;;6.50;6.20;;;12.20;99.90;;;;;;4982582;28;20214;-74
2022/11/06 11:20:46;;;;;;;6.60;6.20;;;12.10;99.90;;;;;;4990478;28;20240;-74
2022/11/06 11:23:24;;;;;;;6.43;6.03;;;12.10;99.90;;;;;;4988987;28;20184;-74
2022/11/06 11:25:51;;;;;;;7.80;7.30;;;12.50;99.90;;;;;;4989701;28;20205;-75
2022/11/06 11:28:28;;;;;;;7.13;6.73;;;12.90;99.90;;;;;;4975078;28;20200;-76
2022/11/06 11:31:15;;;;;;;7.30;6.87;;;13.50;99.90;;;;;;4970146;28;20212;-76
2022/11/06 11:33:49;;;;;;;5.40;5.00;;;13.90;99.90;;;;;;4969451;28;20188;-75
2022/11/06 11:36:14;;;;;;;6.37;5.97;;;14.40;99.90;;;;;;4970915;28;20188;-75
2022/11/06 11:38:41;;;;;;;5.60;5.20;;;14.30;99.90;;;;;;4986735;28;20193;-75
2022/11/06 11:41:19;;;;;;;11.40;10.60;;;14.40;99.90;;;;;;4988815;28;20188;-77
2022/11/06 11:44:04;;;;;;;34.40;32.67;;;14.60;99.90;;;;;;4988812;28;20701;-76
2022/11/06 11:46:31;;;;;;;40.90;38.80;;;15.30;99.90;;;;;;4988548;28;20215;-76
2022/11/06 11:48:58;;;;;;;55.90;53.10;;;14.90;99.90;;;;;;4970133;28;20648;-77
2022/11/06 11:51:23;;;;;;;58.17;55.27;;;15.00;99.90;;;;;;4969431;28;20295;-77
2022/11/06 11:53:51;;;;;;;49.30;46.90;;;15.40;99.90;;;;;;4969814;28;20181;-76
2022/11/06 11:56:20;;;;;;;60.83;57.63;;;15.50;99.90;;;;;;4970113;28;20295;-76
2022/11/06 11:58:58;;;;;;;66.07;62.73;;;15.50;99.90;;;;;;4986638;28;20212;-76
2022/11/06 12:01:40;;;;;;;48.57;45.83;;;16.30;99.90;;;;;;4989788;28;20184;-76
2022/11/06 12:04:17;;;;;;;35.80;34.00;;;17.30;99.90;;;;;;4989621;28;20196;-76
2022/11/06 12:06:58;;;;;;;59.73;56.70;;;16.20;99.90;;;;;;4987700;28;20610;-76
2022/11/06 12:09:25;;;;;;;42.90;40.60;;;16.70;99.90;;;;;;4984597;28;20195;-77
2022/11/06 12:11:53;;;;;;;31.63;29.93;;;17.10;99.90;;;;;;4987045;28;20605;-76
2022/11/06 12:14:30;;;;;;;27.53;26.13;;;17.20;99.90;;;;;;4990873;28;20654;-76
2022/11/06 12:17:12;;;;;;;27.77;25.97;;;17.10;99.90;;;;;;4988159;28;20212;-76
2022/11/06 12:19:40;;;;;;;30.53;28.77;;;16.70;99.90;;;;;;4972956;28;20184;-76
2022/11/06 12:22:15;;;;;;;17.77;16.67;;;17.50;99.90;;;;;;4970294;28;20282;-77
2022/11/06 12:24:45;;;;;;;19.63;18.53;;;17.60;99.90;;;;;;4969539;28;20188;-73
2022/11/06 12:27:19;;;;;;;24.90;23.60;;;17.10;99.90;;;;;;4972212;28;20205;-76
2022/11/06 12:30:02;;;;;;;24.77;23.37;;;17.00;99.90;;;;;;4987964;28;20238;-76
2022/11/06 12:32:38;;;;;;;22.83;21.63;;;16.70;99.90;;;;;;4972597;28;20216;-77
2022/11/06 12:35:08;;;;;;;22.73;21.43;;;16.10;99.90;;;;;;4985867;28;20675;-77
2022/11/06 12:37:39;;;;;;;30.10;28.30;;;16.20;99.90;;;;;;4985837;28;20311;-76
2022/11/06 12:40:27;;;;;;;31.03;29.27;;;16.20;99.90;;;;;;4976684;28;20188;-72
2022/11/06 12:43:02;;;;;;;38.73;36.20;;;16.20;99.90;;;;;;4969317;28;20189;-74
2022/11/06 12:46:06;;;;;;;26.10;24.77;;;16.90;99.90;;;;;;4967588;28;20189;-75
2022/11/06 12:48:53;;;;;;;25.57;24.17;;;16.80;99.90;;;;;;5000493;28;20244;-77
2022/11/06 12:51:30;;;;;;;16.20;15.23;;;17.20;99.90;;;;;;5090728;28;20217;-75
2022/11/06 12:54:14;;;;;;;15.43;14.53;;;17.20;99.90;;;;;;5015890;28;20189;-73
2022/11/06 12:56:51;;;;;;;14.03;13.23;;;17.20;99.90;;;;;;4983976;28;20205;-73
2022/11/06 13:00:05;;;;;;;11.93;11.13;;;16.60;99.90;;;;;;4987259;28;20206;-73
2022/11/06 13:02:49;;;;;;;10.43;9.83;;;17.10;99.90;;;;;;5020392;28;20207;-74
2022/11/06 13:05:31;;;;;;;22.47;21.17;;;16.40;99.90;;;;;;4987190;28;20241;-79
2022/11/06 13:08:22;;;;;;;26.67;25.07;;;16.00;99.90;;;;;;4984602;28;20779;-73